Time;durP1;ratioP1;P1;durP2;ratioP2;P2;SDS_P1;SDS_P2;PMS_P1;PMS_P2;Temp;Humidity;BMP_temperature;BMP_pressure;BME280_temperature;BME280_humidity;BME280_pressure;Samples;Min_cycle;Max_cycle;Signal;HPM_P1;HPM_P2
2023/06/10 00:00:48;;;;;;;13.45;5.78;;;;;;;;;;5013580;28;20493;-72
2023/06/10 00:03:14;;;;;;;15.60;6.05;;;;;;;;;;5012654;28;20398;-72
2023/06/10 00:05:39;;;;;;;17.13;5.80;;;;;;;;;;5013647;28;20034;-72
2023/06/10 00:08:08;;;;;;;19.65;6.57;;;;;;;;;;5013025;28;20515;-72
2023/06/10 00:10:37;;;;;;;18.52;6.18;;;;;;;;;;5008346;28;20042;-72
2023/06/10 00:13:04;;;;;;;18.95;6.78;;;;;;;;;;5011004;28;20397;-72
2023/06/10 00:15:30;;;;;;;12.18;5.90;;;;;;;;;;5011240;28;20034;-72
2023/06/10 00:17:55;;;;;;;15.15;6.32;;;;;;;;;;5012941;28;20044;-72
2023/06/10 00:20:23;;;;;;;18.02;7.13;;;;;;;;;;5013172;28;20496;-72
2023/06/10 00:22:49;;;;;;;24.13;7.22;;;;;;;;;;5012071;28;20108;-72
2023/06/10 00:25:14;;;;;;;16.88;6.43;;;;;;;;;;5011849;28;20482;-72
2023/06/10 00:27:40;;;;;;;13.85;6.30;;;;;;;;;;5011802;28;20057;-72
2023/06/10 00:30:06;;;;;;;19.63;6.10;;;;;;;;;;5011479;28;20481;-72
2023/06/10 00:32:35;;;;;;;16.05;6.15;;;;;;;;;;5008105;28;20371;-72
2023/06/10 00:35:01;;;;;;;16.05;6.32;;;;;;;;;;5011818;28;20033;-72
2023/06/10 00:37:27;;;;;;;16.45;6.53;;;;;;;;;;5012871;28;20045;-72
2023/06/10 00:39:52;;;;;;;29.90;6.60;;;;;;;;;;5013063;28;20080;-72
2023/06/10 00:42:17;;;;;;;21.02;6.35;;;;;;;;;;5012686;28;20077;-72
2023/06/10 00:44:42;;;;;;;18.83;6.63;;;;;;;;;;5013276;28;20038;-72
2023/06/10 00:47:08;;;;;;;18.75;6.60;;;;;;;;;;5012768;28;20049;-72
2023/06/10 00:49:34;;;;;;;18.77;7.43;;;;;;;;;;5011881;28;20084;-72
2023/06/10 00:52:00;;;;;;;16.75;6.20;;;;;;;;;;5012622;28;20030;-72
2023/06/10 00:54:25;;;;;;;17.20;6.15;;;;;;;;;;5011730;28;20061;-72
2023/06/10 00:56:51;;;;;;;18.98;6.53;;;;;;;;;;5009071;28;20466;-72
2023/06/10 00:59:17;;;;;;;14.82;6.45;;;;;;;;;;5012844;28;20042;-72
2023/06/10 01:01:43;;;;;;;10.45;5.72;;;;;;;;;;5012379;28;20037;-72
2023/06/10 01:04:11;;;;;;;25.45;6.95;;;;;;;;;;5012778;28;20041;-72
2023/06/10 01:06:47;;;;;;;17.48;6.45;;;;;;;;;;5012815;28;20026;-72
2023/06/10 01:09:23;;;;;;;14.73;6.50;;;;;;;;;;5009354;28;20053;-72
2023/06/10 01:12:19;;;;;;;16.83;6.72;;;;;;;;;;5011314;28;20533;-71
2023/06/10 01:14:45;;;;;;;14.02;5.85;;;;;;;;;;5004297;28;20042;-72
2023/06/10 01:17:11;;;;;;;19.25;6.47;;;;;;;;;;5008475;28;20156;-71
2023/06/10 01:19:37;;;;;;;18.35;6.22;;;;;;;;;;5011523;28;20041;-71
2023/06/10 01:22:03;;;;;;;19.20;6.30;;;;;;;;;;5012666;28;20037;-72
2023/06/10 01:24:28;;;;;;;28.40;6.97;;;;;;;;;;5011479;28;20033;-72
2023/06/10 01:26:59;;;;;;;13.85;6.90;;;;;;;;;;5008414;28;20045;-72
2023/06/10 01:29:37;;;;;;;26.02;7.40;;;;;;;;;;5012457;28;20481;-72
2023/06/10 01:32:27;;;;;;;25.00;7.30;;;;;;;;;;5004117;28;20038;-72
2023/06/10 01:34:54;;;;;;;18.35;6.43;;;;;;;;;;5007044;28;20405;-72
2023/06/10 01:37:22;;;;;;;14.43;6.97;;;;;;;;;;5009327;28;20034;-72
2023/06/10 01:39:48;;;;;;;14.13;6.00;;;;;;;;;;5007065;28;20045;-71
2023/06/10 01:42:14;;;;;;;14.88;6.70;;;;;;;;;;5010937;28;20046;-71
2023/06/10 01:44:39;;;;;;;18.13;7.00;;;;;;;;;;5011348;28;20449;-72
2023/06/10 01:47:05;;;;;;;21.52;7.28;;;;;;;;;;5010867;28;20030;-72
2023/06/10 01:49:30;;;;;;;22.40;7.55;;;;;;;;;;5012378;28;20052;-72
2023/06/10 01:51:55;;;;;;;22.25;7.25;;;;;;;;;;5012146;28;20052;-72
2023/06/10 01:54:21;;;;;;;24.30;7.45;;;;;;;;;;5012215;28;20096;-72
2023/06/10 01:56:46;;;;;;;15.07;6.43;;;;;;;;;;5012041;28;20042;-72
2023/06/10 01:59:11;;;;;;;25.42;6.57;;;;;;;;;;5011397;28;20100;-71
2023/06/10 02:01:37;;;;;;;17.40;7.18;;;;;;;;;;5003987;28;20037;-72
2023/06/10 02:04:02;;;;;;;17.27;6.93;;;;;;;;;;5015405;28;20120;-72
2023/06/10 02:06:27;;;;;;;19.73;7.22;;;;;;;;;;5014440;28;20498;-72
2023/06/10 02:08:53;;;;;;;19.33;7.30;;;;;;;;;;5016098;28;20022;-72
2023/06/10 02:11:18;;;;;;;20.20;7.75;;;;;;;;;;5015277;28;20393;-71
2023/06/10 02:13:43;;;;;;;18.98;7.15;;;;;;;;;;5015474;28;20409;-72
2023/06/10 02:16:12;;;;;;;18.10;7.60;;;;;;;;;;5015644;28;20165;-72
2023/06/10 02:18:40;;;;;;;25.13;7.85;;;;;;;;;;5015484;28;20113;-72
2023/06/10 02:21:06;;;;;;;23.83;7.60;;;;;;;;;;5014385;28;20056;-72
2023/06/10 02:23:32;;;;;;;22.73;8.50;;;;;;;;;;5015273;28;20034;-72
2023/06/10 02:25:57;;;;;;;13.20;7.50;;;;;;;;;;5015150;28;20048;-72
2023/06/10 02:28:22;;;;;;;20.00;8.43;;;;;;;;;;5015031;28;20502;-72
2023/06/10 02:30:48;;;;;;;17.67;9.13;;;;;;;;;;5007223;28;20034;-72
2023/06/10 02:33:14;;;;;;;33.53;10.30;;;;;;;;;;5014632;28;20044;-71
2023/06/10 02:35:39;;;;;;;33.50;9.23;;;;;;;;;;5015033;28;20065;-72
2023/06/10 02:38:05;;;;;;;21.70;9.07;;;;;;;;;;5014822;28;20061;-72
2023/06/10 02:40:30;;;;;;;27.08;8.50;;;;;;;;;;5014421;28;20050;-72
2023/06/10 02:42:56;;;;;;;21.13;10.15;;;;;;;;;;5014937;28;20049;-72
2023/06/10 02:45:21;;;;;;;26.08;10.15;;;;;;;;;;5015023;28;20044;-72
2023/06/10 02:47:47;;;;;;;20.63;9.18;;;;;;;;;;5014807;28;20041;-72
2023/06/10 02:50:12;;;;;;;16.52;7.80;;;;;;;;;;5015171;28;20042;-72
2023/06/10 02:52:37;;;;;;;21.83;8.18;;;;;;;;;;5014726;28;20080;-72
2023/06/10 02:55:03;;;;;;;14.90;7.70;;;;;;;;;;5014948;28;20048;-72
2023/06/10 02:57:29;;;;;;;18.38;8.57;;;;;;;;;;5014348;28;20128;-72
2023/06/10 02:59:54;;;;;;;20.02;7.88;;;;;;;;;;5014414;28;20465;-72
2023/06/10 03:02:19;;;;;;;25.83;8.57;;;;;;;;;;5014216;28;20042;-71
2023/06/10 03:04:45;;;;;;;17.52;8.35;;;;;;;;;;5013757;28;20600;-72
2023/06/10 03:07:10;;;;;;;14.20;8.85;;;;;;;;;;5014485;28;20509;-72
2023/06/10 03:09:36;;;;;;;16.00;8.32;;;;;;;;;;5014455;28;20371;-72
2023/06/10 03:12:02;;;;;;;21.08;7.97;;;;;;;;;;5012192;28;20065;-72
2023/06/10 03:14:27;;;;;;;20.27;8.10;;;;;;;;;;5012986;28;20112;-72
2023/06/10 03:16:53;;;;;;;24.50;8.77;;;;;;;;;;5014582;28;20147;-72
2023/06/10 03:19:18;;;;;;;17.38;8.52;;;;;;;;;;5013943;28;20566;-71
2023/06/10 03:21:44;;;;;;;25.90;8.02;;;;;;;;;;5014222;28;20109;-72
2023/06/10 03:24:10;;;;;;;22.38;9.50;;;;;;;;;;5012761;28;20041;-72
2023/06/10 03:26:36;;;;;;;21.15;9.30;;;;;;;;;;5013924;28;20030;-72
2023/06/10 03:29:01;;;;;;;20.92;9.57;;;;;;;;;;5013109;28;20389;-72
2023/06/10 03:31:26;;;;;;;17.13;8.95;;;;;;;;;;5013781;28;20037;-72
2023/06/10 03:33:52;;;;;;;26.15;10.18;;;;;;;;;;5012636;28;20561;-72
2023/06/10 03:36:17;;;;;;;17.60;8.43;;;;;;;;;;5013894;28;20485;-72
2023/06/10 03:38:42;;;;;;;16.00;9.10;;;;;;;;;;5014178;28;20393;-72
2023/06/10 03:41:08;;;;;;;17.63;8.23;;;;;;;;;;5013529;28;20088;-72
2023/06/10 03:43:33;;;;;;;17.73;9.07;;;;;;;;;;5013779;28;20037;-72
2023/06/10 03:45:59;;;;;;;17.73;7.93;;;;;;;;;;5013976;28;20103;-72
2023/06/10 03:48:24;;;;;;;22.70;9.27;;;;;;;;;;5013073;28;20041;-72
2023/06/10 03:50:52;;;;;;;21.58;9.38;;;;;;;;;;5014153;28;20470;-72
2023/06/10 03:53:18;;;;;;;22.10;8.80;;;;;;;;;;5013526;28;20038;-72
2023/06/10 03:55:43;;;;;;;22.02;9.07;;;;;;;;;;5012520;28;20440;-72
2023/06/10 03:58:08;;;;;;;22.95;6.88;;;;;;;;;;5011973;28;20133;-72
2023/06/10 04:00:41;;;;;;;26.20;10.18;;;;;;;;;;5006669;28;20118;-72
2023/06/10 04:03:08;;;;;;;18.88;9.55;;;;;;;;;;5011120;28;20044;-72
2023/06/10 04:05:34;;;;;;;20.88;9.73;;;;;;;;;;5013694;28;20092;-72
2023/06/10 04:08:01;;;;;;;18.98;8.85;;;;;;;;;;5011867;28;20038;-72
2023/06/10 04:10:27;;;;;;;27.70;9.95;;;;;;;;;;5013494;28;20125;-72
2023/06/10 04:12:52;;;;;;;17.63;8.32;;;;;;;;;;5013162;28;20061;-71
2023/06/10 04:15:17;;;;;;;21.23;9.68;;;;;;;;;;5008021;28;20049;-72
2023/06/10 04:17:43;;;;;;;21.48;9.70;;;;;;;;;;5013243;28;20045;-72
2023/06/10 04:20:09;;;;;;;21.70;8.60;;;;;;;;;;5013573;28;20049;-72
2023/06/10 04:22:36;;;;;;;19.25;7.80;;;;;;;;;;5009359;28;20096;-71
2023/06/10 04:25:01;;;;;;;14.82;7.95;;;;;;;;;;5012966;28;20096;-72
2023/06/10 04:27:27;;;;;;;21.33;8.63;;;;;;;;;;5013023;28;20486;-71
2023/06/10 04:29:52;;;;;;;16.17;8.93;;;;;;;;;;5013275;28;20034;-72
2023/06/10 04:32:17;;;;;;;25.17;8.90;;;;;;;;;;5012867;28;20045;-72
2023/06/10 04:34:43;;;;;;;17.52;8.07;;;;;;;;;;5013359;28;20042;-72
2023/06/10 04:37:08;;;;;;;22.67;9.88;;;;;;;;;;5013095;28;20037;-72
2023/06/10 04:39:33;;;;;;;24.95;8.50;;;;;;;;;;5013124;28;20044;-72
2023/06/10 04:41:59;;;;;;;25.98;9.57;;;;;;;;;;5012730;28;20037;-72
2023/06/10 04:44:25;;;;;;;18.98;8.15;;;;;;;;;;5011794;28;20081;-72
2023/06/10 04:46:50;;;;;;;24.50;9.18;;;;;;;;;;5007165;28;20109;-72
2023/06/10 04:49:16;;;;;;;18.88;8.20;;;;;;;;;;5011257;28;20033;-72
2023/06/10 04:51:41;;;;;;;17.13;8.38;;;;;;;;;;5011607;28;20040;-72
2023/06/10 04:54:06;;;;;;;15.10;7.05;;;;;;;;;;5012633;28;20110;-72
2023/06/10 04:56:32;;;;;;;21.77;8.45;;;;;;;;;;5012731;28;20045;-72
2023/06/10 04:58:57;;;;;;;20.55;8.38;;;;;;;;;;5012833;28;20117;-72
2023/06/10 05:01:23;;;;;;;19.13;8.07;;;;;;;;;;5012485;28;20053;-72
2023/06/10 05:03:48;;;;;;;19.92;8.48;;;;;;;;;;5011717;28;20061;-72
2023/06/10 05:06:14;;;;;;;18.13;7.53;;;;;;;;;;5012888;28;20049;-72
2023/06/10 05:08:39;;;;;;;22.13;8.07;;;;;;;;;;5012689;28;20034;-72
2023/06/10 05:11:04;;;;;;;18.75;8.57;;;;;;;;;;5012422;28;20045;-72
2023/06/10 05:13:30;;;;;;;15.57;7.05;;;;;;;;;;5011829;28;20049;-72
2023/06/10 05:15:55;;;;;;;15.30;7.57;;;;;;;;;;5012423;28;20135;-72
2023/06/10 05:18:21;;;;;;;15.65;6.95;;;;;;;;;;5012499;28;20375;-72
2023/06/10 05:20:46;;;;;;;13.23;7.05;;;;;;;;;;5012735;28;20469;-72
2023/06/10 05:23:12;;;;;;;18.88;7.35;;;;;;;;;;5012467;28;20116;-72
2023/06/10 05:25:37;;;;;;;18.27;7.10;;;;;;;;;;5011393;28;20066;-72
2023/06/10 05:28:02;;;;;;;17.52;6.80;;;;;;;;;;5012035;28;20121;-72
2023/06/10 05:30:28;;;;;;;21.13;7.50;;;;;;;;;;5012590;28;20033;-72
2023/06/10 05:32:53;;;;;;;20.63;7.40;;;;;;;;;;5012378;28;20037;-72
2023/06/10 05:35:19;;;;;;;18.75;6.80;;;;;;;;;;5013480;28;20398;-72
2023/06/10 05:37:44;;;;;;;18.45;5.95;;;;;;;;;;5016124;28;20148;-72
2023/06/10 05:40:11;;;;;;;17.45;8.25;;;;;;;;;;5016431;28;20113;-72
2023/06/10 05:42:36;;;;;;;13.73;6.80;;;;;;;;;;5015906;28;20038;-72
2023/06/10 05:45:02;;;;;;;18.58;6.55;;;;;;;;;;5016276;28;20030;-72
2023/06/10 05:47:28;;;;;;;14.57;6.43;;;;;;;;;;5016028;28;20037;-72
2023/06/10 05:49:53;;;;;;;18.17;7.20;;;;;;;;;;5014969;28;20042;-72
2023/06/10 05:52:18;;;;;;;15.52;6.72;;;;;;;;;;5014749;28;20030;-72
2023/06/10 05:54:44;;;;;;;25.77;7.60;;;;;;;;;;5016071;28;20383;-72
2023/06/10 05:57:10;;;;;;;15.05;6.57;;;;;;;;;;5015513;28;20034;-72
2023/06/10 05:59:35;;;;;;;16.33;6.95;;;;;;;;;;5014352;28;20508;-72
2023/06/10 06:02:01;;;;;;;17.65;6.57;;;;;;;;;;5013859;28;20034;-72
2023/06/10 06:04:26;;;;;;;17.73;6.43;;;;;;;;;;5014505;28;20386;-72
2023/06/10 06:06:51;;;;;;;14.80;6.65;;;;;;;;;;5015648;28;20058;-72
2023/06/10 06:09:17;;;;;;;16.40;5.88;;;;;;;;;;5015679;28;20033;-72
2023/06/10 06:11:42;;;;;;;19.00;6.72;;;;;;;;;;5015270;28;20048;-72
2023/06/10 06:14:07;;;;;;;17.38;5.72;;;;;;;;;;5015639;28;20034;-72
2023/06/10 06:16:33;;;;;;;17.10;6.25;;;;;;;;;;5015426;28;20429;-72
2023/06/10 06:18:58;;;;;;;15.43;5.90;;;;;;;;;;5014413;28;20042;-72
2023/06/10 06:21:24;;;;;;;13.23;5.55;;;;;;;;;;5011367;28;20030;-72
2023/06/10 06:23:49;;;;;;;18.70;6.07;;;;;;;;;;5011752;28;20029;-72
2023/06/10 06:26:15;;;;;;;19.50;5.47;;;;;;;;;;5015029;28;20053;-72
2023/06/10 06:28:40;;;;;;;15.18;5.15;;;;;;;;;;5014449;28;20479;-72
2023/06/10 06:31:06;;;;;;;16.55;5.75;;;;;;;;;;5014582;28;20034;-72
2023/06/10 06:33:32;;;;;;;13.55;5.90;;;;;;;;;;5009947;28;20054;-72
2023/06/10 06:35:57;;;;;;;16.67;5.35;;;;;;;;;;5015197;28;20040;-72
2023/06/10 06:38:23;;;;;;;13.30;5.30;;;;;;;;;;5013291;28;20045;-72
2023/06/10 06:40:48;;;;;;;15.25;5.72;;;;;;;;;;5011276;28;20034;-72
2023/06/10 06:43:13;;;;;;;16.25;5.72;;;;;;;;;;5007772;28;20041;-72
2023/06/10 06:45:38;;;;;;;11.45;5.00;;;;;;;;;;5014884;28;20040;-72
2023/06/10 06:48:05;;;;;;;15.75;5.30;;;;;;;;;;5008874;28;20105;-72
2023/06/10 06:50:30;;;;;;;11.90;4.68;;;;;;;;;;5015123;28;20380;-72
2023/06/10 06:52:55;;;;;;;13.02;5.07;;;;;;;;;;5014776;28;20121;-72
2023/06/10 06:55:21;;;;;;;15.02;5.57;;;;;;;;;;5015181;28;20038;-72
2023/06/10 06:57:46;;;;;;;11.10;5.10;;;;;;;;;;5014592;28;20060;-72
2023/06/10 07:00:12;;;;;;;12.10;4.50;;;;;;;;;;5014850;28;20079;-72
2023/06/10 07:02:37;;;;;;;13.98;4.93;;;;;;;;;;5011002;28;20034;-72
2023/06/10 07:05:03;;;;;;;16.95;5.38;;;;;;;;;;5008025;28;20707;-73
2023/06/10 07:07:28;;;;;;;9.05;4.03;;;;;;;;;;5012838;28;20474;-72
2023/06/10 07:09:54;;;;;;;15.18;5.47;;;;;;;;;;5013799;28;20041;-72
2023/06/10 07:12:22;;;;;;;10.98;4.47;;;;;;;;;;5013728;28;20112;-72
2023/06/10 07:14:47;;;;;;;12.35;4.57;;;;;;;;;;5013887;28;20046;-72
2023/06/10 07:17:12;;;;;;;17.30;4.85;;;;;;;;;;5013502;28;20709;-72
2023/06/10 07:19:38;;;;;;;16.10;4.78;;;;;;;;;;5014263;28;20486;-72
2023/06/10 07:22:03;;;;;;;13.32;4.28;;;;;;;;;;5014651;28;20038;-72
2023/06/10 07:24:29;;;;;;;16.45;4.57;;;;;;;;;;5014235;28;20034;-72
2023/06/10 07:26:54;;;;;;;12.38;4.60;;;;;;;;;;5014677;28;20030;-73
2023/06/10 07:29:19;;;;;;;16.95;4.65;;;;;;;;;;5014191;28;20378;-72
2023/06/10 07:31:45;;;;;;;10.43;4.50;;;;;;;;;;5014424;28;20042;-72
2023/06/10 07:34:10;;;;;;;10.38;4.07;;;;;;;;;;5014043;28;20029;-72
2023/06/10 07:36:36;;;;;;;13.07;4.78;;;;;;;;;;5013651;28;20096;-72
2023/06/10 07:39:02;;;;;;;12.05;4.40;;;;;;;;;;5013604;28;20037;-72
2023/06/10 07:41:27;;;;;;;15.88;5.03;;;;;;;;;;5011649;28;20036;-73
2023/06/10 07:43:56;;;;;;;14.52;4.32;;;;;;;;;;5013992;28;20044;-73
2023/06/10 07:46:22;;;;;;;14.32;4.47;;;;;;;;;;5012458;28;20037;-73
2023/06/10 07:48:48;;;;;;;11.65;4.35;;;;;;;;;;5005580;28;20862;-73
2023/06/10 07:51:15;;;;;;;12.60;4.25;;;;;;;;;;5016431;28;20057;-72
2023/06/10 07:53:40;;;;;;;14.35;4.72;;;;;;;;;;5001796;28;20041;-72
2023/06/10 07:56:06;;;;;;;11.85;4.85;;;;;;;;;;5009957;28;20390;-72
2023/06/10 07:58:31;;;;;;;12.45;3.95;;;;;;;;;;5006761;28;20411;-72
2023/06/10 08:00:56;;;;;;;12.20;4.22;;;;;;;;;;5012228;28;20481;-72
2023/06/10 08:03:21;;;;;;;10.52;4.78;;;;;;;;;;5004891;28;20029;-72
2023/06/10 08:05:47;;;;;;;12.13;4.55;;;;;;;;;;5013541;28;20038;-72
2023/06/10 08:08:13;;;;;;;14.63;5.15;;;;;;;;;;5011772;28;20033;-72
2023/06/10 08:10:38;;;;;;;13.65;4.70;;;;;;;;;;5012510;28;20033;-72
2023/06/10 08:13:04;;;;;;;13.55;4.82;;;;;;;;;;5013642;28;20030;-72
2023/06/10 08:15:29;;;;;;;14.40;5.35;;;;;;;;;;5008736;28;20479;-72
2023/06/10 08:17:56;;;;;;;14.77;4.43;;;;;;;;;;5012065;28;20386;-72
2023/06/10 08:20:21;;;;;;;10.60;4.43;;;;;;;;;;5011080;28;20430;-72
2023/06/10 08:22:47;;;;;;;10.77;4.40;;;;;;;;;;5012307;28;20037;-72
2023/06/10 08:25:12;;;;;;;14.23;4.97;;;;;;;;;;5012996;28;20042;-72
2023/06/10 08:27:37;;;;;;;13.55;4.63;;;;;;;;;;5013352;28;20863;-73
2023/06/10 08:30:03;;;;;;;15.70;4.68;;;;;;;;;;5013026;28;20038;-73
2023/06/10 08:32:30;;;;;;;13.90;4.47;;;;;;;;;;5013324;28;20517;-73
2023/06/10 08:34:55;;;;;;;13.52;4.70;;;;;;;;;;5013270;28;20110;-73
2023/06/10 08:37:20;;;;;;;13.75;4.68;;;;;;;;;;5013185;28;20511;-73
2023/06/10 08:39:46;;;;;;;14.25;5.00;;;;;;;;;;5012771;28;20034;-73
2023/06/10 08:42:18;;;;;;;11.38;5.15;;;;;;;;;;5003998;28;20042;-73
2023/06/10 08:44:46;;;;;;;16.15;4.72;;;;;;;;;;5011578;28;20084;-73
2023/06/10 08:47:15;;;;;;;12.75;5.15;;;;;;;;;;5011617;28;20153;-73
2023/06/10 08:49:45;;;;;;;9.50;4.05;;;;;;;;;;5010498;28;20046;-73
2023/06/10 08:52:16;;;;;;;14.38;4.68;;;;;;;;;;5010981;28;20132;-73
2023/06/10 08:54:48;;;;;;;13.60;5.10;;;;;;;;;;5011252;28;20041;-72
2023/06/10 08:57:15;;;;;;;13.38;5.38;;;;;;;;;;5010599;28;20037;-73
2023/06/10 08:59:41;;;;;;;11.10;5.05;;;;;;;;;;4994951;28;20398;-73
2023/06/10 09:02:07;;;;;;;12.73;5.07;;;;;;;;;;5012419;28;20034;-73
2023/06/10 09:04:33;;;;;;;11.38;5.05;;;;;;;;;;5011195;28;20085;-73
2023/06/10 09:06:59;;;;;;;11.80;4.93;;;;;;;;;;5011026;28;20041;-73
2023/06/10 09:09:26;;;;;;;13.30;5.07;;;;;;;;;;5012703;28;20037;-73
2023/06/10 09:11:51;;;;;;;12.23;4.60;;;;;;;;;;5014407;28;20056;-73
2023/06/10 09:14:16;;;;;;;10.93;4.82;;;;;;;;;;5016924;28;20042;-73
2023/06/10 09:16:42;;;;;;;11.15;4.95;;;;;;;;;;5016544;28;20037;-72
2023/06/10 09:19:08;;;;;;;14.50;5.55;;;;;;;;;;5015826;28;20038;-73
2023/06/10 09:21:34;;;;;;;16.30;5.63;;;;;;;;;;5014252;28;20188;-72
2023/06/10 09:23:59;;;;;;;12.65;5.15;;;;;;;;;;5013198;28;20026;-72
2023/06/10 09:26:29;;;;;;;9.95;4.85;;;;;;;;;;5014871;28;20492;-73
2023/06/10 09:29:02;;;;;;;14.18;5.78;;;;;;;;;;5005083;28;20042;-73
2023/06/10 09:31:28;;;;;;;15.63;5.70;;;;;;;;;;5015645;28;20069;-73
2023/06/10 09:33:53;;;;;;;12.60;5.38;;;;;;;;;;5016076;28;20130;-73
2023/06/10 09:36:25;;;;;;;12.77;5.10;;;;;;;;;;5010166;28;20092;-73
2023/06/10 09:38:51;;;;;;;12.00;5.40;;;;;;;;;;5016425;28;20046;-72
2023/06/10 09:41:16;;;;;;;10.57;5.43;;;;;;;;;;5015880;28;20037;-73
2023/06/10 09:43:43;;;;;;;13.80;5.50;;;;;;;;;;5015349;28;20048;-70
2023/06/10 09:46:19;;;;;;;11.70;5.35;;;;;;;;;;5015355;28;20042;-70
2023/06/10 09:48:46;;;;;;;19.13;5.75;;;;;;;;;;5016214;28;20042;-70
2023/06/10 09:51:13;;;;;;;12.45;5.43;;;;;;;;;;5014192;28;20038;-72
2023/06/10 09:53:39;;;;;;;11.13;5.15;;;;;;;;;;5014752;28;20064;-73
2023/06/10 09:56:05;;;;;;;13.00;6.28;;;;;;;;;;5012375;28;20538;-73
2023/06/10 09:58:37;;;;;;;9.90;5.60;;;;;;;;;;5012571;28;20041;-73
2023/06/10 10:01:10;;;;;;;11.55;5.65;;;;;;;;;;5005531;28;20041;-73
2023/06/10 10:03:46;;;;;;;15.40;5.65;;;;;;;;;;5013999;28;20046;-73
2023/06/10 10:06:12;;;;;;;14.57;5.93;;;;;;;;;;5014814;28;20038;-73
2023/06/10 10:08:38;;;;;;;13.25;5.82;;;;;;;;;;5014355;28;20046;-72
2023/06/10 10:11:03;;;;;;;16.55;5.95;;;;;;;;;;5016076;28;20397;-73
2023/06/10 10:13:29;;;;;;;13.00;5.43;;;;;;;;;;5014048;28;20030;-72
2023/06/10 10:15:56;;;;;;;12.20;5.95;;;;;;;;;;5014656;28;20041;-73
2023/06/10 10:18:28;;;;;;;13.65;6.32;;;;;;;;;;5013477;28;20053;-73
2023/06/10 10:20:55;;;;;;;14.32;6.30;;;;;;;;;;5013936;28;20022;-73
2023/06/10 10:23:40;;;;;;;10.48;5.78;;;;;;;;;;5015582;28;20044;-73
2023/06/10 10:26:10;;;;;;;11.45;5.47;;;;;;;;;;5015704;28;20087;-73
2023/06/10 10:28:42;;;;;;;13.32;5.18;;;;;;;;;;5015480;28;20046;-73
2023/06/10 10:31:12;;;;;;;11.82;5.10;;;;;;;;;;5015716;28;20034;-70
2023/06/10 10:33:56;;;;;;;11.20;5.35;;;;;;;;;;5000807;28;20046;-70
2023/06/10 10:36:21;;;;;;;13.68;6.18;;;;;;;;;;5011860;28;20034;-73
2023/06/10 10:38:48;;;;;;;14.23;6.00;;;;;;;;;;5012209;28;20575;-73
2023/06/10 10:41:14;;;;;;;11.90;5.60;;;;;;;;;;5011485;28;20136;-73
2023/06/10 10:43:40;;;;;;;9.30;5.45;;;;;;;;;;5011244;28;20051;-73
2023/06/10 10:46:13;;;;;;;13.18;5.15;;;;;;;;;;5011321;28;20473;-72
2023/06/10 10:48:40;;;;;;;12.32;5.93;;;;;;;;;;5007708;28;20034;-72
2023/06/10 10:51:06;;;;;;;13.88;5.72;;;;;;;;;;5014051;28;20041;-72
2023/06/10 10:53:31;;;;;;;13.18;5.70;;;;;;;;;;5008244;28;20038;-72
2023/06/10 10:56:05;;;;;;;15.02;6.25;;;;;;;;;;5013916;28;20462;-72
2023/06/10 10:58:31;;;;;;;15.57;5.97;;;;;;;;;;5012584;28;20045;-72
2023/06/10 11:00:57;;;;;;;12.88;6.10;;;;;;;;;;5013362;28;20077;-72
2023/06/10 11:03:29;;;;;;;9.88;5.93;;;;;;;;;;5010997;28;20033;-72
2023/06/10 11:05:57;;;;;;;12.20;5.90;;;;;;;;;;5014963;28;20030;-72
2023/06/10 11:08:28;;;;;;;12.90;5.80;;;;;;;;;;5013498;28;20053;-72
2023/06/10 11:10:53;;;;;;;12.10;5.75;;;;;;;;;;5014611;28;20026;-72
2023/06/10 11:13:20;;;;;;;14.25;5.72;;;;;;;;;;5013225;28;20092;-72
2023/06/10 11:15:51;;;;;;;14.32;5.50;;;;;;;;;;5013392;28;20037;-72
2023/06/10 11:18:27;;;;;;;12.52;5.47;;;;;;;;;;5014522;28;20394;-72
2023/06/10 11:20:58;;;;;;;12.63;5.85;;;;;;;;;;5012969;28;20061;-72
2023/06/10 11:23:30;;;;;;;15.88;5.65;;;;;;;;;;5014447;28;20104;-72
2023/06/10 11:26:21;;;;;;;15.68;6.43;;;;;;;;;;5012194;28;20044;-72
2023/06/10 11:28:46;;;;;;;13.63;5.65;;;;;;;;;;5014099;28;20480;-72
2023/06/10 11:31:23;;;;;;;11.38;5.43;;;;;;;;;;5014489;28;20053;-72
2023/06/10 11:34:03;;;;;;;16.45;5.35;;;;;;;;;;5013344;28;20033;-72
2023/06/10 11:36:29;;;;;;;10.55;5.72;;;;;;;;;;5014512;28;20065;-72
2023/06/10 11:39:02;;;;;;;13.85;5.88;;;;;;;;;;5014002;28;20096;-72
2023/06/10 11:41:30;;;;;;;15.13;4.90;;;;;;;;;;5014204;28;20041;-72
2023/06/10 11:43:57;;;;;;;15.15;5.22;;;;;;;;;;5012795;28;20068;-72
2023/06/10 11:46:23;;;;;;;15.15;5.05;;;;;;;;;;5012584;28;20445;-72
2023/06/10 11:48:52;;;;;;;13.10;4.72;;;;;;;;;;5013303;28;20117;-72
2023/06/10 11:51:17;;;;;;;13.05;5.72;;;;;;;;;;5011433;28;20113;-72
2023/06/10 11:53:47;;;;;;;11.98;5.22;;;;;;;;;;5013500;28;20120;-72
2023/06/10 11:56:13;;;;;;;14.45;5.35;;;;;;;;;;5011718;28;20100;-72
2023/06/10 11:58:42;;;;;;;8.70;4.80;;;;;;;;;;5012001;28;20050;-72
2023/06/10 12:01:07;;;;;;;14.18;5.22;;;;;;;;;;5000784;28;20482;-72
2023/06/10 12:03:37;;;;;;;10.18;4.97;;;;;;;;;;5009252;28;20041;-72
2023/06/10 12:06:04;;;;;;;15.35;4.80;;;;;;;;;;5012769;28;20470;-72
2023/06/10 12:08:30;;;;;;;11.88;5.30;;;;;;;;;;5010855;28;20042;-72
2023/06/10 12:10:57;;;;;;;10.90;4.68;;;;;;;;;;5007896;28;20046;-72
2023/06/10 12:13:23;;;;;;;12.60;5.22;;;;;;;;;;5011578;28;20041;-72
2023/06/10 12:15:49;;;;;;;11.77;4.63;;;;;;;;;;5012319;28;20033;-72
2023/06/10 12:18:21;;;;;;;13.30;5.70;;;;;;;;;;5013328;28;20083;-72
2023/06/10 12:20:48;;;;;;;11.43;4.80;;;;;;;;;;5012985;28;20583;-72
2023/06/10 12:23:16;;;;;;;13.80;5.15;;;;;;;;;;5011892;28;20049;-72
2023/06/10 12:25:55;;;;;;;10.57;4.70;;;;;;;;;;5012002;28;20440;-72
2023/06/10 12:28:25;;;;;;;13.80;5.03;;;;;;;;;;5013233;28;20041;-72
2023/06/10 12:30:50;;;;;;;8.82;4.90;;;;;;;;;;5010254;28;20030;-72
2023/06/10 12:33:17;;;;;;;11.18;5.40;;;;;;;;;;5010432;28;20220;-72
2023/06/10 12:35:50;;;;;;;10.00;4.82;;;;;;;;;;5013060;28;20030;-72
2023/06/10 12:38:21;;;;;;;;;;;;;;;;;;5006343;28;20036;-73
2023/06/10 12:40:46;;;;;;;10.68;4.97;;;;;;;;;;5011817;28;19913;-72
2023/06/10 12:43:12;;;;;;;9.73;4.70;;;;;;;;;;5011635;28;20395;-72
2023/06/10 12:45:43;;;;;;;12.40;4.28;;;;;;;;;;5012097;28;20125;-72
2023/06/10 12:48:16;;;;;;;13.18;5.13;;;;;;;;;;5012115;28;20042;-73
2023/06/10 12:50:43;;;;;;;9.27;4.60;;;;;;;;;;5011442;28;20458;-70
2023/06/10 12:53:11;;;;;;;12.75;4.97;;;;;;;;;;4995656;28;20049;-72
2023/06/10 12:55:36;;;;;;;12.45;4.72;;;;;;;;;;5009524;28;20048;-72
2023/06/10 12:58:03;;;;;;;12.95;5.28;;;;;;;;;;5010450;28;20045;-72
2023/06/10 13:00:29;;;;;;;19.00;5.25;;;;;;;;;;5011475;28;20041;-72
2023/06/10 13:03:00;;;;;;;12.43;5.13;;;;;;;;;;5010313;28;20041;-72
2023/06/10 13:05:26;;;;;;;13.63;5.85;;;;;;;;;;5006492;28;20062;-72
2023/06/10 13:07:51;;;;;;;11.07;4.95;;;;;;;;;;5010985;28;20072;-72
2023/06/10 13:10:18;;;;;;;11.90;5.30;;;;;;;;;;5012431;28;20042;-72
2023/06/10 13:12:44;;;;;;;8.65;4.70;;;;;;;;;;5012738;28;20088;-72
2023/06/10 13:15:09;;;;;;;10.88;5.15;;;;;;;;;;5011233;28;20045;-72
2023/06/10 13:17:35;;;;;;;11.88;4.22;;;;;;;;;;5010729;28;20037;-72
2023/06/10 13:20:05;;;;;;;11.00;4.60;;;;;;;;;;5010835;28;20489;-72
2023/06/10 13:22:34;;;;;;;8.75;4.53;;;;;;;;;;5006821;28;20060;-72
2023/06/10 13:25:00;;;;;;;10.88;4.68;;;;;;;;;;5012684;28;20045;-72
2023/06/10 13:27:26;;;;;;;9.60;4.60;;;;;;;;;;5012067;28;20026;-72
2023/06/10 13:29:52;;;;;;;14.75;4.38;;;;;;;;;;5011178;28;20041;-72
2023/06/10 13:32:18;;;;;;;11.73;4.75;;;;;;;;;;5012423;28;20041;-72
2023/06/10 13:34:43;;;;;;;9.52;4.25;;;;;;;;;;5011708;28;20038;-72
2023/06/10 13:37:08;;;;;;;10.02;4.72;;;;;;;;;;5009988;28;20467;-72
2023/06/10 13:39:34;;;;;;;11.88;4.28;;;;;;;;;;5012338;28;20512;-72
2023/06/10 13:41:59;;;;;;;8.90;4.35;;;;;;;;;;5009412;28;20033;-72
2023/06/10 13:44:24;;;;;;;11.20;4.15;;;;;;;;;;5004347;28;20104;-72
2023/06/10 13:46:50;;;;;;;14.10;4.45;;;;;;;;;;5011072;28;20038;-72
2023/06/10 13:49:15;;;;;;;13.45;5.20;;;;;;;;;;5011820;28;20116;-72
2023/06/10 13:51:40;;;;;;;8.48;4.57;;;;;;;;;;5012184;28;20525;-72
2023/06/10 13:54:06;;;;;;;12.95;4.93;;;;;;;;;;5012127;28;20045;-72
2023/06/10 13:56:33;;;;;;;9.25;4.68;;;;;;;;;;5012068;28;20490;-72
2023/06/10 13:58:58;;;;;;;13.52;4.85;;;;;;;;;;5014508;28;20048;-73
2023/06/10 14:01:25;;;;;;;10.85;4.22;;;;;;;;;;5015095;28;20050;-72
2023/06/10 14:03:50;;;;;;;9.65;4.32;;;;;;;;;;5015219;28;20111;-72
2023/06/10 14:06:18;;;;;;;10.27;4.30;;;;;;;;;;5015703;28;20126;-72
2023/06/10 14:08:44;;;;;;;8.57;4.40;;;;;;;;;;5013415;28;20490;-72
2023/06/10 14:11:09;;;;;;;10.50;4.55;;;;;;;;;;5014066;28;20717;-72
2023/06/10 14:13:35;;;;;;;9.13;4.47;;;;;;;;;;5015458;28;20092;-72
2023/06/10 14:16:02;;;;;;;10.88;4.97;;;;;;;;;;5015133;28;20556;-72
2023/06/10 14:18:28;;;;;;;9.48;4.38;;;;;;;;;;5011896;28;20026;-72
2023/06/10 14:20:53;;;;;;;7.40;4.13;;;;;;;;;;5014321;28;20044;-72
2023/06/10 14:23:18;;;;;;;8.57;4.07;;;;;;;;;;5015408;28;20116;-72
2023/06/10 14:25:44;;;;;;;11.10;4.40;;;;;;;;;;5014726;28;20122;-72
2023/06/10 14:28:09;;;;;;;12.35;5.95;;;;;;;;;;5014813;28;20120;-72